sensor_id;sensor_type;location;lat;lon;timestamp;P1;durP1;ratioP1;P2;durP2;ratioP2
42726;SDS011;28372;56.832;60.658;2022-12-29T00:00:16;25.00;;;9.63;;
42726;SDS011;28372;56.832;60.658;2022-12-29T00:02:47;18.58;;;8.60;;
42726;SDS011;28372;56.832;60.658;2022-12-29T00:05:18;19.08;;;8.73;;
42726;SDS011;28372;56.832;60.658;2022-12-29T00:07:49;24.67;;;10.38;;
42726;SDS011;28372;56.832;60.658;2022-12-29T00:10:29;19.48;;;7.97;;
42726;SDS011;28372;56.832;60.658;2022-12-29T00:13:05;17.30;;;6.40;;
42726;SDS011;28372;56.832;60.658;2022-12-29T00:15:55;16.63;;;6.65;;
42726;SDS011;28372;56.832;60.658;2022-12-29T00:18:23;15.63;;;6.45;;
42726;SDS011;28372;56.832;60.658;2022-12-29T00:20:55;15.80;;;6.57;;
42726;SDS011;28372;56.832;60.658;2022-12-29T00:23:49;17.58;;;6.63;;
42726;SDS011;28372;56.832;60.658;2022-12-29T00:30:10;16.20;;;7.45;;
42726;SDS011;28372;56.832;60.658;2022-12-29T00:33:18;11.07;;;5.75;;
42726;SDS011;28372;56.832;60.658;2022-12-29T00:36:07;12.90;;;5.90;;
42726;SDS011;28372;56.832;60.658;2022-12-29T00:38:54;12.70;;;6.00;;
42726;SDS011;28372;56.832;60.658;2022-12-29T00:42:04;12.35;;;6.55;;
42726;SDS011;28372;56.832;60.658;2022-12-29T00:45:06;18.40;;;7.63;;
42726;SDS011;28372;56.832;60.658;2022-12-29T00:47:50;11.07;;;5.28;;
42726;SDS011;28372;56.832;60.658;2022-12-29T00:50:28;13.05;;;5.07;;
42726;SDS011;28372;56.832;60.658;2022-12-29T00:53:05;11.15;;;4.82;;
42726;SDS011;28372;56.832;60.658;2022-12-29T00:55:41;11.10;;;5.45;;
42726;SDS011;28372;56.832;60.658;2022-12-29T00:58:12;11.32;;;4.90;;
42726;SDS011;28372;56.832;60.658;2022-12-29T01:00:52;10.65;;;4.75;;
42726;SDS011;28372;56.832;60.658;2022-12-29T01:03:20;12.65;;;5.18;;
42726;SDS011;28372;56.832;60.658;2022-12-29T01:05:50;12.50;;;4.97;;
42726;SDS011;28372;56.832;60.658;2022-12-29T01:08:19;14.82;;;6.63;;
42726;SDS011;28372;56.832;60.658;2022-12-29T01:11:03;11.70;;;5.70;;
42726;SDS011;28372;56.832;60.658;2022-12-29T01:13:57;13.15;;;5.60;;
42726;SDS011;28372;56.832;60.658;2022-12-29T01:16:31;12.70;;;5.55;;
42726;SDS011;28372;56.832;60.658;2022-12-29T01:19:10;11.38;;;5.60;;
42726;SDS011;28372;56.832;60.658;2022-12-29T01:21:39;13.48;;;5.82;;
42726;SDS011;28372;56.832;60.658;2022-12-29T01:24:08;14.23;;;6.28;;
42726;SDS011;28372;56.832;60.658;2022-12-29T01:26:36;12.13;;;5.80;;
42726;SDS011;28372;56.832;60.658;2022-12-29T01:29:04;12.20;;;5.10;;
42726;SDS011;28372;56.832;60.658;2022-12-29T01:31:34;14.65;;;6.68;;
42726;SDS011;28372;56.832;60.658;2022-12-29T01:34:04;14.55;;;5.93;;
42726;SDS011;28372;56.832;60.658;2022-12-29T01:36:33;14.45;;;6.68;;
42726;SDS011;28372;56.832;60.658;2022-12-29T01:39:02;14.63;;;6.30;;
42726;SDS011;28372;56.832;60.658;2022-12-29T01:41:34;15.40;;;6.75;;
42726;SDS011;28372;56.832;60.658;2022-12-29T01:47:20;17.05;;;6.93;;
42726;SDS011;28372;56.832;60.658;2022-12-29T01:49:56;15.98;;;7.53;;
42726;SDS011;28372;56.832;60.658;2022-12-29T01:52:29;22.67;;;8.10;;
42726;SDS011;28372;56.832;60.658;2022-12-29T01:55:01;18.23;;;8.50;;
42726;SDS011;28372;56.832;60.658;2022-12-29T01:57:31;20.42;;;8.43;;
42726;SDS011;28372;56.832;60.658;2022-12-29T02:00:05;19.15;;;7.70;;
42726;SDS011;28372;56.832;60.658;2022-12-29T02:02:41;26.90;;;10.27;;
42726;SDS011;28372;56.832;60.658;2022-12-29T02:08:07;21.20;;;8.88;;
42726;SDS011;28372;56.832;60.658;2022-12-29T02:10:38;19.27;;;8.32;;
42726;SDS011;28372;56.832;60.658;2022-12-29T02:13:07;14.85;;;6.25;;
42726;SDS011;28372;56.832;60.658;2022-12-29T02:22:23;10.85;;;4.68;;
42726;SDS011;28372;56.832;60.658;2022-12-29T02:28:08;14.40;;;5.78;;
42726;SDS011;28372;56.832;60.658;2022-12-29T02:41:57;10.55;;;4.50;;
42726;SDS011;28372;56.832;60.658;2022-12-29T02:47:28;11.02;;;4.53;;
42726;SDS011;28372;56.832;60.658;2022-12-29T02:50:07;11.27;;;4.80;;
42726;SDS011;28372;56.832;60.658;2022-12-29T02:53:18;9.43;;;4.25;;
42726;SDS011;28372;56.832;60.658;2022-12-29T02:55:47;10.65;;;4.80;;
42726;SDS011;28372;56.832;60.658;2022-12-29T02:58:20;12.77;;;4.70;;
42726;SDS011;28372;56.832;60.658;2022-12-29T03:04:15;11.45;;;4.50;;
42726;SDS011;28372;56.832;60.658;2022-12-29T03:13:13;10.50;;;4.55;;
42726;SDS011;28372;56.832;60.658;2022-12-29T03:16:22;8.77;;;3.60;;
42726;SDS011;28372;56.832;60.658;2022-12-29T03:19:22;8.27;;;4.18;;
42726;SDS011;28372;56.832;60.658;2022-12-29T03:21:56;9.43;;;4.75;;
42726;SDS011;28372;56.832;60.658;2022-12-29T03:24:56;12.65;;;5.47;;
42726;SDS011;28372;56.832;60.658;2022-12-29T03:27:29;13.88;;;5.60;;
42726;SDS011;28372;56.832;60.658;2022-12-29T03:30:02;20.53;;;8.07;;
42726;SDS011;28372;56.832;60.658;2022-12-29T03:32:33;20.55;;;8.02;;
42726;SDS011;28372;56.832;60.658;2022-12-29T03:35:05;14.60;;;6.35;;
42726;SDS011;28372;56.832;60.658;2022-12-29T03:37:39;16.98;;;7.38;;
42726;SDS011;28372;56.832;60.658;2022-12-29T03:40:12;16.23;;;6.68;;
42726;SDS011;28372;56.832;60.658;2022-12-29T03:42:40;12.48;;;6.15;;
42726;SDS011;28372;56.832;60.658;2022-12-29T03:45:08;14.98;;;6.20;;
42726;SDS011;28372;56.832;60.658;2022-12-29T03:47:40;17.55;;;7.75;;
42726;SDS011;28372;56.832;60.658;2022-12-29T03:50:08;15.57;;;6.75;;
42726;SDS011;28372;56.832;60.658;2022-12-29T03:52:41;14.15;;;6.22;;
42726;SDS011;28372;56.832;60.658;2022-12-29T03:55:08;14.98;;;6.95;;
42726;SDS011;28372;56.832;60.658;2022-12-29T03:57:38;13.00;;;5.72;;
42726;SDS011;28372;56.832;60.658;2022-12-29T04:00:10;17.25;;;7.38;;
42726;SDS011;28372;56.832;60.658;2022-12-29T04:02:41;19.48;;;8.00;;
42726;SDS011;28372;56.832;60.658;2022-12-29T04:05:17;14.15;;;6.50;;
42726;SDS011;28372;56.832;60.658;2022-12-29T04:07:45;15.90;;;6.05;;
42726;SDS011;28372;56.832;60.658;2022-12-29T04:10:13;13.60;;;6.38;;
42726;SDS011;28372;56.832;60.658;2022-12-29T04:12:43;13.73;;;6.45;;
42726;SDS011;28372;56.832;60.658;2022-12-29T04:15:13;12.77;;;6.28;;
42726;SDS011;28372;56.832;60.658;2022-12-29T04:17:41;16.75;;;7.25;;
42726;SDS011;28372;56.832;60.658;2022-12-29T04:20:09;12.88;;;5.95;;
42726;SDS011;28372;56.832;60.658;2022-12-29T04:23:04;15.02;;;5.93;;
42726;SDS011;28372;56.832;60.658;2022-12-29T04:25:34;13.52;;;5.97;;
42726;SDS011;28372;56.832;60.658;2022-12-29T04:28:02;13.30;;;5.93;;
42726;SDS011;28372;56.832;60.658;2022-12-29T04:30:44;14.23;;;6.45;;
42726;SDS011;28372;56.832;60.658;2022-12-29T04:33:19;16.52;;;6.72;;
42726;SDS011;28372;56.832;60.658;2022-12-29T04:35:48;17.23;;;7.22;;
42726;SDS011;28372;56.832;60.658;2022-12-29T04:38:16;16.52;;;6.90;;
42726;SDS011;28372;56.832;60.658;2022-12-29T04:40:45;12.90;;;5.68;;
42726;SDS011;28372;56.832;60.658;2022-12-29T04:43:15;12.93;;;4.82;;
42726;SDS011;28372;56.832;60.658;2022-12-29T04:46:03;14.60;;;5.32;;
42726;SDS011;28372;56.832;60.658;2022-12-29T04:48:40;13.27;;;5.40;;
42726;SDS011;28372;56.832;60.658;2022-12-29T04:51:30;9.95;;;5.03;;
42726;SDS011;28372;56.832;60.658;2022-12-29T04:53:59;10.73;;;5.00;;
42726;SDS011;28372;56.832;60.658;2022-12-29T04:56:30;13.02;;;6.25;;
42726;SDS011;28372;56.832;60.658;2022-12-29T04:58:58;17.75;;;6.63;;
42726;SDS011;28372;56.832;60.658;2022-12-29T05:01:26;15.50;;;7.07;;
42726;SDS011;28372;56.832;60.658;2022-12-29T05:03:53;15.18;;;6.53;;
42726;SDS011;28372;56.832;60.658;2022-12-29T05:06:22;14.38;;;5.93;;
42726;SDS011;28372;56.832;60.658;2022-12-29T05:08:49;14.55;;;5.82;;
42726;SDS011;28372;56.832;60.658;2022-12-29T05:11:17;15.13;;;6.28;;
42726;SDS011;28372;56.832;60.658;2022-12-29T05:13:48;14.93;;;5.10;;
42726;SDS011;28372;56.832;60.658;2022-12-29T05:16:16;14.45;;;5.68;;
42726;SDS011;28372;56.832;60.658;2022-12-29T05:18:44;13.40;;;6.28;;
42726;SDS011;28372;56.832;60.658;2022-12-29T05:21:13;14.43;;;6.38;;
42726;SDS011;28372;56.832;60.658;2022-12-29T05:23:42;12.45;;;5.43;;
42726;SDS011;28372;56.832;60.658;2022-12-29T05:26:09;13.35;;;6.00;;
42726;SDS011;28372;56.832;60.658;2022-12-29T05:29:06;15.90;;;6.75;;
42726;SDS011;28372;56.832;60.658;2022-12-29T05:31:34;18.88;;;6.57;;
42726;SDS011;28372;56.832;60.658;2022-12-29T05:34:04;15.35;;;6.35;;
42726;SDS011;28372;56.832;60.658;2022-12-29T05:36:31;15.60;;;5.88;;
42726;SDS011;28372;56.832;60.658;2022-12-29T05:39:05;16.00;;;7.30;;
42726;SDS011;28372;56.832;60.658;2022-12-29T05:41:36;16.95;;;6.78;;
42726;SDS011;28372;56.832;60.658;2022-12-29T05:44:20;14.77;;;6.40;;
42726;SDS011;28372;56.832;60.658;2022-12-29T05:46:58;15.18;;;5.78;;
42726;SDS011;28372;56.832;60.658;2022-12-29T05:49:52;12.23;;;5.43;;
42726;SDS011;28372;56.832;60.658;2022-12-29T05:52:38;15.90;;;5.28;;
42726;SDS011;28372;56.832;60.658;2022-12-29T05:55:05;16.90;;;6.85;;
42726;SDS011;28372;56.832;60.658;2022-12-29T05:57:36;16.77;;;7.13;;
42726;SDS011;28372;56.832;60.658;2022-12-29T06:00:09;13.88;;;6.13;;
42726;SDS011;28372;56.832;60.658;2022-12-29T06:02:40;15.98;;;7.35;;
42726;SDS011;28372;56.832;60.658;2022-12-29T06:05:08;13.23;;;6.75;;
42726;SDS011;28372;56.832;60.658;2022-12-29T06:07:39;10.10;;;4.78;;
42726;SDS011;28372;56.832;60.658;2022-12-29T06:10:07;12.35;;;6.45;;
42726;SDS011;28372;56.832;60.658;2022-12-29T06:12:44;13.77;;;6.28;;
42726;SDS011;28372;56.832;60.658;2022-12-29T06:15:14;13.50;;;4.90;;
42726;SDS011;28372;56.832;60.658;2022-12-29T06:17:43;13.15;;;6.95;;
42726;SDS011;28372;56.832;60.658;2022-12-29T06:20:11;14.85;;;7.05;;
42726;SDS011;28372;56.832;60.658;2022-12-29T06:22:40;15.20;;;6.93;;
42726;SDS011;28372;56.832;60.658;2022-12-29T06:25:08;16.15;;;8.13;;
42726;SDS011;28372;56.832;60.658;2022-12-29T06:27:35;16.35;;;7.68;;
42726;SDS011;28372;56.832;60.658;2022-12-29T06:30:04;20.23;;;9.07;;
42726;SDS011;28372;56.832;60.658;2022-12-29T06:32:32;17.52;;;9.35;;
42726;SDS011;28372;56.832;60.658;2022-12-29T06:35:03;18.48;;;8.82;;
42726;SDS011;28372;56.832;60.658;2022-12-29T06:37:40;18.88;;;10.00;;
42726;SDS011;28372;56.832;60.658;2022-12-29T06:40:08;16.48;;;8.98;;
42726;SDS011;28372;56.832;60.658;2022-12-29T06:42:54;21.58;;;10.57;;
42726;SDS011;28372;56.832;60.658;2022-12-29T06:45:40;21.90;;;11.15;;
42726;SDS011;28372;56.832;60.658;2022-12-29T06:48:08;26.20;;;11.02;;
42726;SDS011;28372;56.832;60.658;2022-12-29T06:50:35;21.45;;;11.95;;
42726;SDS011;28372;56.832;60.658;2022-12-29T06:53:03;22.73;;;11.27;;
42726;SDS011;28372;56.832;60.658;2022-12-29T06:55:31;19.40;;;10.57;;
42726;SDS011;28372;56.832;60.658;2022-12-29T06:57:58;21.67;;;10.75;;
42726;SDS011;28372;56.832;60.658;2022-12-29T07:00:28;21.70;;;11.38;;
42726;SDS011;28372;56.832;60.658;2022-12-29T07:02:55;16.80;;;10.13;;
42726;SDS011;28372;56.832;60.658;2022-12-29T07:05:26;23.40;;;13.25;;
42726;SDS011;28372;56.832;60.658;2022-12-29T07:07:54;22.35;;;12.25;;
42726;SDS011;28372;56.832;60.658;2022-12-29T07:10:22;19.95;;;11.15;;
42726;SDS011;28372;56.832;60.658;2022-12-29T07:12:50;19.90;;;11.07;;
42726;SDS011;28372;56.832;60.658;2022-12-29T07:15:17;18.98;;;10.75;;
42726;SDS011;28372;56.832;60.658;2022-12-29T07:17:45;23.30;;;11.70;;
42726;SDS011;28372;56.832;60.658;2022-12-29T07:20:12;23.60;;;11.88;;
42726;SDS011;28372;56.832;60.658;2022-12-29T07:22:41;19.85;;;10.88;;
42726;SDS011;28372;56.832;60.658;2022-12-29T07:25:09;18.98;;;9.88;;
42726;SDS011;28372;56.832;60.658;2022-12-29T07:27:38;14.63;;;9.32;;
42726;SDS011;28372;56.832;60.658;2022-12-29T07:30:05;17.05;;;9.13;;
42726;SDS011;28372;56.832;60.658;2022-12-29T07:32:33;17.75;;;9.98;;
42726;SDS011;28372;56.832;60.658;2022-12-29T07:35:01;21.60;;;10.27;;
42726;SDS011;28372;56.832;60.658;2022-12-29T07:37:29;18.30;;;9.68;;
42726;SDS011;28372;56.832;60.658;2022-12-29T07:39:59;21.25;;;11.45;;
42726;SDS011;28372;56.832;60.658;2022-12-29T07:42:30;20.95;;;11.02;;
42726;SDS011;28372;56.832;60.658;2022-12-29T07:44:59;21.02;;;11.32;;
42726;SDS011;28372;56.832;60.658;2022-12-29T07:47:35;21.77;;;11.57;;
42726;SDS011;28372;56.832;60.658;2022-12-29T07:50:03;26.50;;;13.15;;
42726;SDS011;28372;56.832;60.658;2022-12-29T07:52:31;20.88;;;10.13;;
42726;SDS011;28372;56.832;60.658;2022-12-29T07:54:59;22.02;;;12.25;;
42726;SDS011;28372;56.832;60.658;2022-12-29T07:57:27;20.20;;;9.93;;
42726;SDS011;28372;56.832;60.658;2022-12-29T07:59:58;25.52;;;12.45;;
42726;SDS011;28372;56.832;60.658;2022-12-29T08:02:26;23.27;;;11.00;;
42726;SDS011;28372;56.832;60.658;2022-12-29T08:04:53;21.08;;;11.68;;
42726;SDS011;28372;56.832;60.658;2022-12-29T08:07:21;23.95;;;10.50;;
42726;SDS011;28372;56.832;60.658;2022-12-29T08:09:48;21.48;;;10.60;;
42726;SDS011;28372;56.832;60.658;2022-12-29T08:12:16;21.20;;;9.30;;
42726;SDS011;28372;56.832;60.658;2022-12-29T08:14:44;22.80;;;10.98;;
42726;SDS011;28372;56.832;60.658;2022-12-29T08:17:12;18.30;;;8.98;;
42726;SDS011;28372;56.832;60.658;2022-12-29T08:19:40;23.98;;;10.35;;
42726;SDS011;28372;56.832;60.658;2022-12-29T08:22:09;16.40;;;8.60;;
42726;SDS011;28372;56.832;60.658;2022-12-29T08:24:37;16.58;;;8.88;;
42726;SDS011;28372;56.832;60.658;2022-12-29T08:27:04;17.55;;;10.02;;
42726;SDS011;28372;56.832;60.658;2022-12-29T08:29:43;19.60;;;10.93;;
42726;SDS011;28372;56.832;60.658;2022-12-29T08:32:11;20.30;;;10.13;;
42726;SDS011;28372;56.832;60.658;2022-12-29T08:34:39;19.83;;;9.18;;
42726;SDS011;28372;56.832;60.658;2022-12-29T08:37:06;18.23;;;9.82;;
42726;SDS011;28372;56.832;60.658;2022-12-29T08:39:34;18.50;;;8.88;;
42726;SDS011;28372;56.832;60.658;2022-12-29T08:42:01;18.83;;;9.75;;
42726;SDS011;28372;56.832;60.658;2022-12-29T08:44:29;20.00;;;10.07;;
42726;SDS011;28372;56.832;60.658;2022-12-29T08:46:56;17.42;;;9.32;;
42726;SDS011;28372;56.832;60.658;2022-12-29T08:49:24;19.35;;;9.50;;
42726;SDS011;28372;56.832;60.658;2022-12-29T08:51:51;15.57;;;8.13;;
42726;SDS011;28372;56.832;60.658;2022-12-29T08:54:19;15.82;;;6.03;;
42726;SDS011;28372;56.832;60.658;2022-12-29T08:56:47;14.02;;;7.95;;
42726;SDS011;28372;56.832;60.658;2022-12-29T08:59:15;14.40;;;7.15;;
42726;SDS011;28372;56.832;60.658;2022-12-29T09:01:45;16.00;;;8.35;;
42726;SDS011;28372;56.832;60.658;2022-12-29T09:04:13;16.52;;;7.38;;
42726;SDS011;28372;56.832;60.658;2022-12-29T09:06:43;12.65;;;6.65;;
42726;SDS011;28372;56.832;60.658;2022-12-29T09:09:12;17.65;;;7.90;;
42726;SDS011;28372;56.832;60.658;2022-12-29T09:11:40;14.35;;;7.15;;
42726;SDS011;28372;56.832;60.658;2022-12-29T09:14:08;14.23;;;6.28;;
42726;SDS011;28372;56.832;60.658;2022-12-29T09:16:36;11.88;;;6.22;;
42726;SDS011;28372;56.832;60.658;2022-12-29T09:19:04;15.75;;;8.40;;
42726;SDS011;28372;56.832;60.658;2022-12-29T09:21:32;17.52;;;7.40;;
42726;SDS011;28372;56.832;60.658;2022-12-29T09:23:59;15.57;;;6.63;;
42726;SDS011;28372;56.832;60.658;2022-12-29T09:26:27;12.02;;;6.40;;
42726;SDS011;28372;56.832;60.658;2022-12-29T09:28:54;12.18;;;5.47;;
42726;SDS011;28372;56.832;60.658;2022-12-29T09:31:22;16.45;;;6.82;;
42726;SDS011;28372;56.832;60.658;2022-12-29T09:33:50;15.90;;;7.03;;
42726;SDS011;28372;56.832;60.658;2022-12-29T09:36:17;14.40;;;6.57;;
42726;SDS011;28372;56.832;60.658;2022-12-29T09:38:45;17.10;;;8.68;;
42726;SDS011;28372;56.832;60.658;2022-12-29T09:41:18;18.23;;;9.70;;
42726;SDS011;28372;56.832;60.658;2022-12-29T09:44:13;18.92;;;7.40;;
42726;SDS011;28372;56.832;60.658;2022-12-29T09:47:03;18.08;;;7.78;;
42726;SDS011;28372;56.832;60.658;2022-12-29T09:52:14;17.23;;;8.70;;
42726;SDS011;28372;56.832;60.658;2022-12-29T09:55:03;14.48;;;7.90;;
42726;SDS011;28372;56.832;60.658;2022-12-29T10:00:23;12.82;;;6.22;;
42726;SDS011;28372;56.832;60.658;2022-12-29T10:03:06;16.10;;;8.02;;
42726;SDS011;28372;56.832;60.658;2022-12-29T10:08:44;13.45;;;6.90;;
42726;SDS011;28372;56.832;60.658;2022-12-29T10:19:57;16.13;;;9.20;;
42726;SDS011;28372;56.832;60.658;2022-12-29T10:22:51;14.57;;;7.25;;
42726;SDS011;28372;56.832;60.658;2022-12-29T10:25:40;14.18;;;7.85;;
42726;SDS011;28372;56.832;60.658;2022-12-29T10:31:16;16.92;;;9.90;;
42726;SDS011;28372;56.832;60.658;2022-12-29T10:33:49;17.58;;;8.43;;
42726;SDS011;28372;56.832;60.658;2022-12-29T10:36:38;14.70;;;7.20;;
42726;SDS011;28372;56.832;60.658;2022-12-29T10:42:04;16.40;;;8.82;;
42726;SDS011;28372;56.832;60.658;2022-12-29T10:44:53;14.68;;;7.38;;
42726;SDS011;28372;56.832;60.658;2022-12-29T10:47:23;17.73;;;9.48;;
42726;SDS011;28372;56.832;60.658;2022-12-29T10:49:54;17.50;;;9.20;;
42726;SDS011;28372;56.832;60.658;2022-12-29T10:52:22;13.90;;;6.05;;
42726;SDS011;28372;56.832;60.658;2022-12-29T10:57:26;11.90;;;4.93;;
42726;SDS011;28372;56.832;60.658;2022-12-29T11:00:17;11.52;;;5.88;;
42726;SDS011;28372;56.832;60.658;2022-12-29T11:02:53;12.55;;;5.60;;
42726;SDS011;28372;56.832;60.658;2022-12-29T11:05:56;16.73;;;8.25;;
42726;SDS011;28372;56.832;60.658;2022-12-29T11:09:01;13.98;;;7.53;;
42726;SDS011;28372;56.832;60.658;2022-12-29T11:11:38;18.77;;;8.50;;
42726;SDS011;28372;56.832;60.658;2022-12-29T11:14:13;14.27;;;6.47;;
42726;SDS011;28372;56.832;60.658;2022-12-29T11:16:44;17.90;;;8.48;;
42726;SDS011;28372;56.832;60.658;2022-12-29T11:19:28;13.88;;;6.03;;
42726;SDS011;28372;56.832;60.658;2022-12-29T11:24:45;18.75;;;10.25;;
42726;SDS011;28372;56.832;60.658;2022-12-29T11:27:18;11.90;;;6.65;;
42726;SDS011;28372;56.832;60.658;2022-12-29T11:29:51;13.98;;;6.85;;
42726;SDS011;28372;56.832;60.658;2022-12-29T11:32:24;13.32;;;6.18;;
42726;SDS011;28372;56.832;60.658;2022-12-29T11:34:58;11.20;;;5.43;;
42726;SDS011;28372;56.832;60.658;2022-12-29T11:37:30;15.55;;;8.05;;
42726;SDS011;28372;56.832;60.658;2022-12-29T11:42:57;13.85;;;7.57;;
42726;SDS011;28372;56.832;60.658;2022-12-29T11:45:32;15.80;;;8.43;;
42726;SDS011;28372;56.832;60.658;2022-12-29T11:48:09;12.07;;;5.82;;
42726;SDS011;28372;56.832;60.658;2022-12-29T11:50:48;15.50;;;7.25;;
42726;SDS011;28372;56.832;60.658;2022-12-29T11:53:20;12.48;;;6.10;;
42726;SDS011;28372;56.832;60.658;2022-12-29T11:56:02;12.50;;;7.32;;
42726;SDS011;28372;56.832;60.658;2022-12-29T11:58:42;14.25;;;6.72;;
42726;SDS011;28372;56.832;60.658;2022-12-29T12:01:18;17.52;;;8.27;;
42726;SDS011;28372;56.832;60.658;2022-12-29T12:04:00;15.52;;;8.25;;
42726;SDS011;28372;56.832;60.658;2022-12-29T12:06:35;19.58;;;10.55;;
42726;SDS011;28372;56.832;60.658;2022-12-29T12:09:19;16.27;;;9.25;;
42726;SDS011;28372;56.832;60.658;2022-12-29T12:12:00;24.55;;;14.15;;
42726;SDS011;28372;56.832;60.658;2022-12-29T12:14:32;19.92;;;11.60;;
42726;SDS011;28372;56.832;60.658;2022-12-29T12:26:02;12.93;;;6.10;;
42726;SDS011;28372;56.832;60.658;2022-12-29T12:28:51;15.50;;;7.38;;
42726;SDS011;28372;56.832;60.658;2022-12-29T12:31:27;15.60;;;7.75;;
42726;SDS011;28372;56.832;60.658;2022-12-29T12:39:44;23.42;;;13.27;;
42726;SDS011;28372;56.832;60.658;2022-12-29T12:46:09;17.42;;;8.38;;
42726;SDS011;28372;56.832;60.658;2022-12-29T13:04:59;15.38;;;7.10;;
42726;SDS011;28372;56.832;60.658;2022-12-29T13:10:50;16.02;;;7.38;;
42726;SDS011;28372;56.832;60.658;2022-12-29T13:22:33;16.10;;;7.40;;
42726;SDS011;28372;56.832;60.658;2022-12-29T13:25:39;20.85;;;8.00;;
42726;SDS011;28372;56.832;60.658;2022-12-29T13:31:48;16.70;;;8.43;;
42726;SDS011;28372;56.832;60.658;2022-12-29T13:34:14;17.75;;;9.60;;
42726;SDS011;28372;56.832;60.658;2022-12-29T13:37:00;18.75;;;7.55;;
42726;SDS011;28372;56.832;60.658;2022-12-29T13:39:34;20.08;;;8.52;;
42726;SDS011;28372;56.832;60.658;2022-12-29T13:42:06;16.65;;;8.70;;
42726;SDS011;28372;56.832;60.658;2022-12-29T13:49:56;20.23;;;9.65;;
42726;SDS011;28372;56.832;60.658;2022-12-29T13:52:32;24.90;;;10.80;;
42726;SDS011;28372;56.832;60.658;2022-12-29T13:55:21;21.35;;;10.90;;
42726;SDS011;28372;56.832;60.658;2022-12-29T13:58:14;21.92;;;10.50;;
42726;SDS011;28372;56.832;60.658;2022-12-29T14:01:15;24.40;;;11.35;;
42726;SDS011;28372;56.832;60.658;2022-12-29T14:03:51;29.77;;;16.40;;
42726;SDS011;28372;56.832;60.658;2022-12-29T14:08:53;27.13;;;14.02;;
42726;SDS011;28372;56.832;60.658;2022-12-29T14:11:28;27.75;;;12.95;;
42726;SDS011;28372;56.832;60.658;2022-12-29T14:14:45;24.42;;;13.70;;
42726;SDS011;28372;56.832;60.658;2022-12-29T14:17:11;25.58;;;12.80;;
42726;SDS011;28372;56.832;60.658;2022-12-29T14:19:41;21.85;;;11.30;;
42726;SDS011;28372;56.832;60.658;2022-12-29T14:22:15;20.13;;;9.75;;
42726;SDS011;28372;56.832;60.658;2022-12-29T14:24:58;23.77;;;10.70;;
42726;SDS011;28372;56.832;60.658;2022-12-29T14:30:03;23.33;;;11.48;;
42726;SDS011;28372;56.832;60.658;2022-12-29T14:33:01;21.10;;;10.45;;
42726;SDS011;28372;56.832;60.658;2022-12-29T14:35:44;19.85;;;8.80;;
42726;SDS011;28372;56.832;60.658;2022-12-29T14:38:17;17.25;;;9.02;;
42726;SDS011;28372;56.832;60.658;2022-12-29T14:40:48;19.58;;;9.30;;
42726;SDS011;28372;56.832;60.658;2022-12-29T14:43:26;19.33;;;7.85;;
42726;SDS011;28372;56.832;60.658;2022-12-29T14:45:55;19.40;;;9.60;;
42726;SDS011;28372;56.832;60.658;2022-12-29T14:48:30;18.75;;;9.93;;
42726;SDS011;28372;56.832;60.658;2022-12-29T14:51:02;18.27;;;8.90;;
42726;SDS011;28372;56.832;60.658;2022-12-29T14:53:56;18.17;;;8.90;;
42726;SDS011;28372;56.832;60.658;2022-12-29T14:56:24;19.55;;;8.55;;
42726;SDS011;28372;56.832;60.658;2022-12-29T14:59:00;21.17;;;10.32;;
42726;SDS011;28372;56.832;60.658;2022-12-29T15:04:20;23.15;;;10.00;;
42726;SDS011;28372;56.832;60.658;2022-12-29T15:06:52;23.17;;;11.60;;
42726;SDS011;28372;56.832;60.658;2022-12-29T15:09:25;23.52;;;10.88;;
42726;SDS011;28372;56.832;60.658;2022-12-29T15:14:58;21.67;;;10.55;;
42726;SDS011;28372;56.832;60.658;2022-12-29T15:17:33;19.00;;;9.73;;
42726;SDS011;28372;56.832;60.658;2022-12-29T15:20:14;21.60;;;10.48;;
42726;SDS011;28372;56.832;60.658;2022-12-29T15:22:48;19.40;;;8.73;;
42726;SDS011;28372;56.832;60.658;2022-12-29T15:25:46;17.15;;;7.88;;
42726;SDS011;28372;56.832;60.658;2022-12-29T15:28:20;21.55;;;9.70;;
42726;SDS011;28372;56.832;60.658;2022-12-29T15:30:56;21.45;;;8.95;;
42726;SDS011;28372;56.832;60.658;2022-12-29T15:33:30;21.00;;;9.13;;
42726;SDS011;28372;56.832;60.658;2022-12-29T15:36:09;25.00;;;11.23;;
42726;SDS011;28372;56.832;60.658;2022-12-29T15:38:39;25.65;;;9.40;;
42726;SDS011;28372;56.832;60.658;2022-12-29T15:41:29;24.02;;;10.07;;
42726;SDS011;28372;56.832;60.658;2022-12-29T15:44:27;21.25;;;9.15;;
42726;SDS011;28372;56.832;60.658;2022-12-29T15:47:06;23.70;;;9.10;;
42726;SDS011;28372;56.832;60.658;2022-12-29T15:49:49;26.65;;;10.25;;
42726;SDS011;28372;56.832;60.658;2022-12-29T15:52:20;25.70;;;10.73;;
42726;SDS011;28372;56.832;60.658;2022-12-29T15:54:50;21.05;;;9.60;;
42726;SDS011;28372;56.832;60.658;2022-12-29T15:57:26;21.85;;;10.80;;
42726;SDS011;28372;56.832;60.658;2022-12-29T15:59:54;29.70;;;12.25;;
42726;SDS011;28372;56.832;60.658;2022-12-29T16:02:23;28.52;;;11.48;;
42726;SDS011;28372;56.832;60.658;2022-12-29T16:04:52;8.82;;;4.10;;
42726;SDS011;28372;56.832;60.658;2022-12-29T16:07:40;26.02;;;9.88;;
42726;SDS011;28372;56.832;60.658;2022-12-29T16:10:25;22.25;;;9.75;;
42726;SDS011;28372;56.832;60.658;2022-12-29T16:13:16;25.88;;;9.43;;
42726;SDS011;28372;56.832;60.658;2022-12-29T16:16:12;28.15;;;10.27;;
42726;SDS011;28372;56.832;60.658;2022-12-29T16:18:46;23.42;;;9.70;;
42726;SDS011;28372;56.832;60.658;2022-12-29T16:21:47;24.10;;;9.88;;
42726;SDS011;28372;56.832;60.658;2022-12-29T16:24:20;20.40;;;7.63;;
42726;SDS011;28372;56.832;60.658;2022-12-29T16:26:57;22.00;;;8.30;;
42726;SDS011;28372;56.832;60.658;2022-12-29T16:29:39;21.73;;;9.30;;
42726;SDS011;28372;56.832;60.658;2022-12-29T16:38:07;17.88;;;6.97;;
42726;SDS011;28372;56.832;60.658;2022-12-29T16:40:50;21.10;;;7.28;;
42726;SDS011;28372;56.832;60.658;2022-12-29T16:43:23;16.35;;;6.43;;
42726;SDS011;28372;56.832;60.658;2022-12-29T16:48:29;19.08;;;7.30;;
42726;SDS011;28372;56.832;60.658;2022-12-29T16:51:05;20.00;;;7.60;;
42726;SDS011;28372;56.832;60.658;2022-12-29T16:53:48;20.83;;;8.85;;
42726;SDS011;28372;56.832;60.658;2022-12-29T16:56:21;25.00;;;8.65;;
42726;SDS011;28372;56.832;60.658;2022-12-29T16:59:03;21.17;;;8.80;;
42726;SDS011;28372;56.832;60.658;2022-12-29T17:01:46;25.85;;;9.05;;
42726;SDS011;28372;56.832;60.658;2022-12-29T17:04:14;15.85;;;6.53;;
42726;SDS011;28372;56.832;60.658;2022-12-29T17:06:42;22.00;;;9.20;;
42726;SDS011;28372;56.832;60.658;2022-12-29T17:09:30;17.63;;;6.25;;
42726;SDS011;28372;56.832;60.658;2022-12-29T17:12:00;12.55;;;4.60;;
42726;SDS011;28372;56.832;60.658;2022-12-29T17:22:48;13.15;;;4.80;;
42726;SDS011;28372;56.832;60.658;2022-12-29T17:25:18;16.38;;;5.85;;
42726;SDS011;28372;56.832;60.658;2022-12-29T17:27:55;13.98;;;4.97;;
42726;SDS011;28372;56.832;60.658;2022-12-29T17:30:39;14.65;;;6.43;;
42726;SDS011;28372;56.832;60.658;2022-12-29T17:33:12;19.58;;;7.63;;
42726;SDS011;28372;56.832;60.658;2022-12-29T17:35:41;17.35;;;5.88;;
42726;SDS011;28372;56.832;60.658;2022-12-29T17:38:16;20.98;;;6.53;;
42726;SDS011;28372;56.832;60.658;2022-12-29T17:40:46;14.13;;;5.40;;